createdAt,value
2022-12-03T00:03:21.264Z,28.90
2022-12-03T00:08:22.932Z,25.90
2022-12-03T00:13:24.483Z,24.60
2022-12-03T00:18:26.102Z,25.87
2022-12-03T00:23:27.826Z,24.87
2022-12-03T00:28:29.425Z,26.13
2022-12-03T00:33:31.544Z,29.07
2022-12-03T00:38:33.124Z,26.37
2022-12-03T00:43:34.678Z,27.30
2022-12-03T00:48:36.321Z,24.83
2022-12-03T00:53:37.916Z,27.43
2022-12-03T00:58:39.499Z,27.83
2022-12-03T01:03:41.020Z,27.43
2022-12-03T01:08:42.571Z,27.57
2022-12-03T01:13:44.163Z,26.20
2022-12-03T01:18:46.266Z,24.33
2022-12-03T01:23:47.887Z,25.70
2022-12-03T01:28:49.436Z,26.93
2022-12-03T01:33:50.990Z,27.10
2022-12-03T01:38:52.539Z,27.17
2022-12-03T01:43:54.762Z,30.03
2022-12-03T01:48:56.654Z,28.10
2022-12-03T01:53:59.160Z,26.40
2022-12-03T01:59:00.741Z,29.03
2022-12-03T02:04:02.337Z,27.10
2022-12-03T02:09:04.041Z,26.77
2022-12-03T02:14:08.496Z,26.37
2022-12-03T02:19:29.390Z,24.20
2022-12-03T02:24:43.204Z,27.33
2022-12-03T02:29:44.761Z,23.70
2022-12-03T02:34:46.343Z,25.13
2022-12-03T02:39:51.301Z,24.40
2022-12-03T02:44:53.726Z,24.73
2022-12-03T02:49:55.806Z,27.70
2022-12-03T02:54:57.860Z,25.60
2022-12-03T02:59:59.467Z,24.47
2022-12-03T03:05:01.082Z,28.50
2022-12-03T03:10:03.901Z,25.63
2022-12-03T03:15:06.664Z,27.67
2022-12-03T03:20:09.357Z,26.70
2022-12-03T03:25:14.257Z,26.47
2022-12-03T03:30:16.248Z,26.00
2022-12-03T03:35:17.996Z,24.17
2022-12-03T03:40:21.060Z,26.13
2022-12-03T03:45:27.329Z,25.40
2022-12-03T03:50:31.625Z,25.23
2022-12-03T03:55:33.964Z,23.37
2022-12-03T04:00:36.329Z,24.97
2022-12-03T04:05:38.139Z,22.50
2022-12-03T04:10:57.927Z,21.97
2022-12-03T04:15:59.575Z,23.03
2022-12-03T04:21:19.552Z,23.53
2022-12-03T04:26:39.719Z,24.37
2022-12-03T04:32:00.263Z,23.63
2022-12-03T04:37:01.833Z,22.83
2022-12-03T04:42:03.953Z,22.93
2022-12-03T04:47:09.233Z,23.47
2022-12-03T04:52:11.950Z,23.70
2022-12-03T04:57:13.498Z,22.07
2022-12-03T05:02:15.117Z,24.57
2022-12-03T05:07:16.670Z,21.77
2022-12-03T05:12:18.216Z,22.53
2022-12-03T05:17:19.796Z,23.93
2022-12-03T05:22:21.333Z,23.47
2022-12-03T05:27:24.197Z,22.67
2022-12-03T05:32:26.157Z,26.23
2022-12-03T05:37:27.734Z,21.97
2022-12-03T05:42:47.788Z,24.03
2022-12-03T05:47:49.388Z,22.63
2022-12-03T05:52:51.466Z,21.80
2022-12-03T05:57:53.023Z,23.83
2022-12-03T06:02:55.126Z,22.00
2022-12-03T06:07:56.925Z,22.27
2022-12-03T06:12:58.709Z,22.47
2022-12-03T06:18:00.261Z,20.33
2022-12-03T06:23:01.855Z,23.00
2022-12-03T06:28:03.532Z,24.03
2022-12-03T06:33:05.076Z,24.97
2022-12-03T06:38:06.693Z,22.80
2022-12-03T06:43:09.203Z,26.90
2022-12-03T06:48:10.762Z,23.17
2022-12-03T06:53:12.323Z,23.60
2022-12-03T06:58:13.905Z,22.53
2022-12-03T07:03:15.664Z,21.80
2022-12-03T07:08:17.337Z,21.83
2022-12-03T07:13:18.978Z,22.87
2022-12-03T07:18:20.565Z,23.50
2022-12-03T07:23:22.105Z,23.57
2022-12-03T07:28:23.640Z,21.60
2022-12-03T07:33:25.246Z,19.03
2022-12-03T07:38:26.828Z,24.77
2022-12-03T07:43:28.395Z,22.07
2022-12-03T07:48:29.965Z,22.43
2022-12-03T07:53:33.260Z,24.97
2022-12-03T07:58:34.802Z,22.73
2022-12-03T08:03:36.354Z,22.67
2022-12-03T08:08:37.935Z,22.60
2022-12-03T08:13:39.549Z,22.23
2022-12-03T08:18:41.128Z,23.23
2022-12-03T08:23:42.919Z,25.67
2022-12-03T08:28:44.456Z,23.67
2022-12-03T08:33:50.294Z,23.27
2022-12-03T08:38:59.514Z,23.40
2022-12-03T08:44:01.113Z,24.20
2022-12-03T08:49:02.891Z,23.97
2022-12-03T08:54:13.026Z,25.73
2022-12-03T08:59:30.129Z,25.17
2022-12-03T09:04:46.780Z,24.63
2022-12-03T09:09:48.329Z,27.13
2022-12-03T09:14:49.916Z,27.37
2022-12-03T09:19:51.460Z,28.60
2022-12-03T09:24:53.168Z,27.73
2022-12-03T09:29:54.923Z,26.57
2022-12-03T09:34:57.062Z,30.67
2022-12-03T09:39:58.735Z,28.67
2022-12-03T09:45:00.544Z,29.33
2022-12-03T09:50:02.122Z,29.10
2022-12-03T09:55:07.799Z,28.47
2022-12-03T10:00:16.906Z,30.93
2022-12-03T10:05:22.010Z,26.80
2022-12-03T10:10:24.405Z,30.67
2022-12-03T10:15:26.194Z,28.07
2022-12-03T10:20:27.758Z,29.37
2022-12-03T10:25:29.303Z,29.37
2022-12-03T10:30:30.977Z,28.20
2022-12-03T10:35:41.195Z,32.10
2022-12-03T10:40:42.901Z,32.20
2022-12-03T10:45:45.871Z,30.33
2022-12-03T10:51:04.834Z,30.00
2022-12-03T10:56:07.827Z,30.10
2022-12-03T11:01:19.602Z,31.07
2022-12-03T11:06:22.724Z,31.30
2022-12-03T11:11:28.387Z,31.73
2022-12-03T11:16:39.058Z,30.17
2022-12-03T11:22:05.359Z,30.67
2022-12-03T11:27:13.386Z,28.03
2022-12-03T11:32:39.653Z,32.50
2022-12-03T11:37:41.458Z,32.73
2022-12-03T11:42:43.742Z,35.60
2022-12-03T11:48:23.715Z,34.40
2022-12-03T11:53:27.182Z,32.33
2022-12-03T11:58:29.956Z,32.93
2022-12-03T12:03:34.494Z,33.40
2022-12-03T12:08:38.958Z,34.47
2022-12-03T12:13:43.602Z,30.97
2022-12-03T12:18:52.390Z,35.37
2022-12-03T12:23:56.372Z,34.00
2022-12-03T12:28:57.940Z,31.20
2022-12-03T12:33:59.594Z,33.57
2022-12-03T12:39:01.260Z,33.17
2022-12-03T12:44:05.515Z,35.17
2022-12-03T12:49:16.222Z,36.50
2022-12-03T12:54:18.313Z,31.70
2022-12-03T12:59:21.285Z,31.87
2022-12-03T13:04:24.137Z,28.03
2022-12-03T13:09:26.414Z,30.80
2022-12-03T13:14:33.464Z,30.70
2022-12-03T13:19:46.082Z,30.00
2022-12-03T13:24:54.309Z,30.10
2022-12-03T13:30:17.002Z,28.33
2022-12-03T13:35:31.537Z,25.97
2022-12-03T13:40:35.960Z,27.47
2022-12-03T13:45:38.879Z,25.93
2022-12-03T13:50:43.906Z,28.93
2022-12-03T13:55:48.650Z,27.37
2022-12-03T14:00:50.280Z,20.63
2022-12-03T14:05:51.888Z,20.33
2022-12-03T14:10:59.924Z,22.23
2022-12-03T14:16:02.280Z,19.50
2022-12-03T14:21:03.904Z,19.30
2022-12-03T14:26:05.576Z,18.00
2022-12-03T14:31:07.209Z,18.70
2022-12-03T14:36:09.287Z,17.93
2022-12-03T14:41:30.847Z,22.63
2022-12-03T14:46:32.454Z,26.40
2022-12-03T14:51:34.129Z,24.83
2022-12-03T14:56:35.734Z,26.87
2022-12-03T15:01:37.453Z,27.43
2022-12-03T15:06:39.124Z,27.77
2022-12-03T15:11:45.963Z,30.80
2022-12-03T15:16:48.191Z,29.80
2022-12-03T15:21:49.892Z,31.00
2022-12-03T15:26:53.332Z,35.63
2022-12-03T15:31:54.912Z,34.20
2022-12-03T15:36:56.531Z,32.80
2022-12-03T15:41:58.149Z,32.43
2022-12-03T15:46:59.772Z,35.93
2022-12-03T15:52:01.361Z,33.33
2022-12-03T15:57:02.960Z,37.10
2022-12-03T16:02:04.752Z,31.80
2022-12-03T16:07:07.110Z,30.90
2022-12-03T16:12:09.408Z,34.27
2022-12-03T16:17:11.008Z,34.87
2022-12-03T16:22:13.213Z,33.50
2022-12-03T16:27:14.902Z,33.10
2022-12-03T16:32:16.603Z,35.07
2022-12-03T16:37:18.181Z,31.43
2022-12-03T16:42:22.385Z,34.20
2022-12-03T16:47:26.933Z,31.70
2022-12-03T16:52:30.949Z,36.43
2022-12-03T16:57:34.036Z,34.00
2022-12-03T17:02:35.821Z,35.97
2022-12-03T17:07:37.471Z,34.57
2022-12-03T17:13:07.639Z,37.63
2022-12-03T17:18:00.974Z,34.70
2022-12-03T17:23:02.779Z,40.37
2022-12-03T17:28:04.487Z,34.37
2022-12-03T17:33:06.073Z,35.33
2022-12-03T17:38:09.024Z,35.10
2022-12-03T17:43:10.579Z,37.50
2022-12-03T17:48:12.182Z,34.73
2022-12-03T17:53:13.738Z,36.07
2022-12-03T17:58:15.290Z,43.40
2022-12-03T18:03:16.824Z,35.13
2022-12-03T18:08:18.461Z,34.63
2022-12-03T18:13:20.232Z,34.97
2022-12-03T18:18:21.823Z,33.73
2022-12-03T18:23:23.364Z,35.10
2022-12-03T18:28:25.155Z,37.83
2022-12-03T18:33:26.951Z,37.03
2022-12-03T18:38:31.075Z,34.47
2022-12-03T18:43:32.717Z,34.13
2022-12-03T18:48:34.263Z,33.03
2022-12-03T18:53:35.804Z,35.57
2022-12-03T18:58:37.672Z,39.23
2022-12-03T19:03:39.215Z,36.70
2022-12-03T19:08:41.000Z,32.67
2022-12-03T19:13:42.621Z,33.73
2022-12-03T19:18:44.390Z,33.27
2022-12-03T19:24:16.035Z,34.47
2022-12-03T19:29:08.576Z,35.50
2022-12-03T19:34:10.137Z,30.70
2022-12-03T19:39:11.760Z,33.33
2022-12-03T19:44:14.809Z,35.13
2022-12-03T19:49:18.501Z,33.33
2022-12-03T19:54:20.190Z,31.43
2022-12-03T19:59:21.742Z,32.00
2022-12-03T20:04:23.324Z,28.60
2022-12-03T20:09:24.958Z,32.97
2022-12-03T20:14:26.564Z,32.47
2022-12-03T20:19:28.137Z,32.93
2022-12-03T20:24:29.772Z,33.00
2022-12-03T20:29:31.367Z,33.87
2022-12-03T20:34:35.764Z,36.53
2022-12-03T20:39:37.355Z,38.73
2022-12-03T20:44:38.898Z,36.67
2022-12-03T20:49:40.451Z,38.13
2022-12-03T20:54:42.077Z,40.63
2022-12-03T20:59:43.698Z,36.87
2022-12-03T21:04:45.257Z,41.00
2022-12-03T21:09:46.895Z,36.70
2022-12-03T21:14:48.473Z,40.00
2022-12-03T21:19:50.152Z,40.03
2022-12-03T21:24:51.801Z,40.43
2022-12-03T21:29:53.984Z,44.23
2022-12-03T21:34:55.913Z,38.40
2022-12-03T21:39:57.537Z,40.60
2022-12-03T21:44:59.251Z,42.33
2022-12-03T21:50:00.961Z,38.73
2022-12-03T21:55:02.622Z,43.20
2022-12-03T22:00:08.978Z,43.57
2022-12-03T22:05:13.464Z,42.77
2022-12-03T22:10:15.097Z,39.27
2022-12-03T22:15:19.156Z,43.73
2022-12-03T22:20:21.101Z,40.53
2022-12-03T22:25:22.666Z,41.03
2022-12-03T22:30:24.268Z,43.00
2022-12-03T22:35:25.837Z,44.10
2022-12-03T22:40:27.484Z,38.87
2022-12-03T22:45:29.108Z,42.00
2022-12-03T22:50:30.676Z,40.90
2022-12-03T22:55:32.295Z,41.10
2022-12-03T23:00:41.601Z,41.67
2022-12-03T23:05:43.170Z,38.60
2022-12-03T23:10:47.124Z,36.77
2022-12-03T23:15:50.777Z,38.60
2022-12-03T23:20:54.172Z,39.80
2022-12-03T23:26:06.753Z,37.90
2022-12-03T23:31:20.703Z,38.00
2022-12-03T23:36:24.197Z,38.93
2022-12-03T23:41:25.868Z,41.20
2022-12-03T23:46:28.338Z,41.00
2022-12-03T23:51:30.125Z,39.43
2022-12-03T23:56:31.830Z,42.53
